Time;durP1;ratioP1;P1;durP2;ratioP2;P2;SDS_P1;SDS_P2;PMS_P1;PMS_P2;Temp;Humidity;BMP_temperature;BMP_pressure;BME280_temperature;BME280_humidity;BME280_pressure;Samples;Min_cycle;Max_cycle;Signal;HPM_P1;HPM_P2
2023/03/04 00:01:59;;;;;;;25.53;14.20;;;7.00;99.90;;;;;;7389709;19;20134;-76
2023/03/04 00:04:26;;;;;;;25.03;14.70;;;7.00;99.90;;;;;;7387183;19;20185;-75
2023/03/04 00:06:51;;;;;;;26.40;14.03;;;7.10;99.90;;;;;;7388707;19;20159;-76
2023/03/04 00:09:17;;;;;;;26.03;13.53;;;6.90;99.90;;;;;;7387861;19;20587;-76
2023/03/04 00:11:43;;;;;;;25.10;13.90;;;6.90;99.90;;;;;;7387980;19;20540;-76
2023/03/04 00:14:09;;;;;;;24.00;13.07;;;6.90;99.90;;;;;;7390087;19;20145;-76
2023/03/04 00:16:35;;;;;;;24.20;13.10;;;6.90;99.90;;;;;;7386024;19;20214;-75
2023/03/04 00:19:01;;;;;;;22.03;12.73;;;7.00;99.90;;;;;;7388775;19;20131;-76
2023/03/04 00:21:26;;;;;;;24.53;12.77;;;7.10;99.90;;;;;;7388376;19;20146;-75
2023/03/04 00:23:52;;;;;;;25.43;13.57;;;7.10;99.90;;;;;;7387718;19;20457;-75
2023/03/04 00:26:18;;;;;;;25.87;12.87;;;7.00;99.90;;;;;;7386351;19;20123;-75
2023/03/04 00:28:44;;;;;;;25.03;13.73;;;7.00;99.90;;;;;;7387293;19;20142;-74
2023/03/04 00:31:10;;;;;;;24.47;12.67;;;7.00;99.90;;;;;;7385405;19;20169;-75
2023/03/04 00:33:36;;;;;;;23.83;13.07;;;7.00;99.90;;;;;;7389352;19;20511;-76
2023/03/04 00:36:02;;;;;;;25.20;13.17;;;7.00;99.90;;;;;;7386775;19;20496;-75
2023/03/04 00:38:28;;;;;;;23.47;12.70;;;7.00;99.90;;;;;;7388438;19;20152;-76
2023/03/04 00:40:54;;;;;;;22.40;12.97;;;6.90;99.90;;;;;;7386072;19;20130;-76
2023/03/04 00:43:19;;;;;;;25.37;12.90;;;7.00;99.90;;;;;;7387432;19;20698;-74
2023/03/04 00:45:45;;;;;;;23.00;12.77;;;6.90;99.90;;;;;;7387167;19;20146;-76
2023/03/04 00:48:11;;;;;;;25.37;13.43;;;6.50;99.90;;;;;;7387293;19;20143;-75
2023/03/04 00:50:37;;;;;;;23.77;12.67;;;6.50;99.90;;;;;;7386847;19;20123;-75
2023/03/04 00:53:03;;;;;;;26.13;13.47;;;6.70;99.90;;;;;;7386769;19;20168;-75
2023/03/04 00:55:29;;;;;;;24.47;13.87;;;6.80;99.90;;;;;;7387310;19;20163;-76
2023/03/04 00:57:55;;;;;;;20.87;12.30;;;6.70;99.90;;;;;;7386525;19;20165;-76
2023/03/04 01:00:21;;;;;;;24.03;13.00;;;6.70;99.90;;;;;;7390527;19;20146;-76
2023/03/04 01:02:46;;;;;;;21.93;12.57;;;6.40;99.90;;;;;;7394317;19;20234;-76
2023/03/04 01:05:13;;;;;;;23.70;12.37;;;6.70;99.90;;;;;;7393378;19;20143;-75
2023/03/04 01:07:38;;;;;;;24.63;12.67;;;6.80;99.90;;;;;;7395614;19;20142;-76
2023/03/04 01:10:12;;;;;;;29.30;12.90;;;6.70;99.90;;;;;;7394001;19;20134;-75
2023/03/04 01:12:40;;;;;;;24.00;12.07;;;6.80;99.90;;;;;;7394307;19;20142;-76
2023/03/04 01:15:08;;;;;;;23.47;12.53;;;6.70;99.90;;;;;;7394985;19;20491;-75
2023/03/04 01:17:34;;;;;;;21.53;12.50;;;6.50;99.90;;;;;;7393437;19;20138;-74
2023/03/04 01:20:00;;;;;;;21.63;12.20;;;6.60;99.90;;;;;;7387301;19;20154;-76
2023/03/04 01:22:25;;;;;;;24.20;12.27;;;6.60;99.90;;;;;;7394171;19;20143;-75
2023/03/04 01:24:51;;;;;;;23.07;12.83;;;6.60;99.90;;;;;;7393258;19;20214;-76
2023/03/04 01:27:17;;;;;;;23.10;12.93;;;6.50;99.90;;;;;;7392067;19;20143;-74
2023/03/04 01:29:43;;;;;;;23.93;12.10;;;6.50;99.90;;;;;;7393073;19;20570;-76
2023/03/04 01:32:08;;;;;;;21.53;11.80;;;6.50;99.90;;;;;;7392680;19;20135;-76
2023/03/04 01:34:35;;;;;;;22.63;12.37;;;6.50;99.90;;;;;;7391364;19;20611;-76
2023/03/04 01:37:01;;;;;;;21.13;11.07;;;6.40;99.90;;;;;;7392309;19;20151;-76
2023/03/04 01:39:26;;;;;;;22.60;11.50;;;6.40;99.90;;;;;;7391843;19;20587;-75
2023/03/04 01:41:52;;;;;;;21.53;11.57;;;6.40;99.90;;;;;;7388744;19;20185;-76
2023/03/04 01:44:18;;;;;;;21.33;11.87;;;6.30;99.90;;;;;;7394145;19;20561;-76
2023/03/04 01:46:50;;;;;;;21.90;11.90;;;6.30;99.90;;;;;;7391441;19;20171;-75
2023/03/04 01:49:17;;;;;;;21.40;11.40;;;6.30;99.90;;;;;;7392338;19;20530;-76
2023/03/04 01:51:48;;;;;;;20.60;10.83;;;6.30;99.90;;;;;;7393536;19;20140;-75
2023/03/04 01:54:14;;;;;;;23.17;11.17;;;6.30;99.90;;;;;;7392529;19;20139;-76
2023/03/04 01:56:42;;;;;;;24.23;11.83;;;6.30;99.90;;;;;;7393167;19;20138;-76
2023/03/04 01:59:20;;;;;;;21.20;11.83;;;6.30;99.90;;;;;;7391829;19;20143;-76
2023/03/04 02:01:49;;;;;;;19.50;11.33;;;6.40;99.90;;;;;;7385754;19;20146;-76
2023/03/04 02:04:17;;;;;;;19.40;11.23;;;6.40;99.90;;;;;;7390958;19;20620;-76
2023/03/04 02:06:44;;;;;;;21.87;12.10;;;6.50;99.90;;;;;;7391791;19;20672;-76
2023/03/04 02:09:10;;;;;;;23.60;12.17;;;6.40;99.90;;;;;;7393175;19;20150;-76
2023/03/04 02:11:37;;;;;;;20.23;10.70;;;6.40;99.90;;;;;;7389863;19;20149;-76
2023/03/04 02:14:04;;;;;;;23.53;12.43;;;6.00;99.90;;;;;;7392411;19;20148;-76
2023/03/04 02:16:31;;;;;;;19.93;11.40;;;6.00;99.90;;;;;;7391935;19;20130;-76
2023/03/04 02:18:57;;;;;;;18.73;11.00;;;5.70;99.90;;;;;;7392251;19;20142;-76
2023/03/04 02:21:31;;;;;;;20.07;11.80;;;4.90;99.90;;;;;;7395106;19;20157;-75
2023/03/04 02:24:14;;;;;;;23.27;11.90;;;5.20;99.90;;;;;;7391936;19;20138;-75
2023/03/04 02:26:42;;;;;;;19.87;11.53;;;5.50;99.90;;;;;;7391145;19;20160;-76
2023/03/04 02:29:10;;;;;;;18.07;10.47;;;5.80;99.90;;;;;;7393328;19;20235;-75
2023/03/04 02:31:44;;;;;;;19.50;10.67;;;5.80;99.90;;;;;;7391044;19;20234;-76
2023/03/04 02:34:15;;;;;;;20.13;11.50;;;5.90;99.90;;;;;;7391494;19;20161;-76
2023/03/04 02:36:42;;;;;;;19.07;11.07;;;6.00;99.90;;;;;;7391757;19;20149;-76
2023/03/04 02:39:33;;;;;;;18.37;10.10;;;5.90;99.90;;;;;;7389836;19;20126;-76
2023/03/04 02:42:00;;;;;;;19.33;10.90;;;5.90;99.90;;;;;;7387495;19;20182;-76
2023/03/04 02:44:29;;;;;;;18.93;10.30;;;5.90;99.90;;;;;;7391347;19;20155;-75
2023/03/04 02:46:56;;;;;;;21.77;10.10;;;6.00;99.90;;;;;;7389731;19;20135;-74
2023/03/04 02:49:24;;;;;;;18.20;11.37;;;5.80;99.90;;;;;;7392578;19;20138;-75
2023/03/04 02:51:52;;;;;;;22.53;11.27;;;4.90;99.90;;;;;;7390244;19;20279;-76
2023/03/04 02:54:20;;;;;;;20.03;11.07;;;5.10;99.90;;;;;;7388719;19;20492;-76
2023/03/04 02:56:51;;;;;;;20.73;10.43;;;5.40;99.90;;;;;;7381534;19;20146;-76
2023/03/04 02:59:18;;;;;;;20.97;10.87;;;5.50;99.90;;;;;;7387775;19;20698;-78
2023/03/04 03:01:44;;;;;;;19.03;11.47;;;5.50;99.90;;;;;;7387721;19;20798;-76
2023/03/04 03:04:11;;;;;;;20.50;10.87;;;5.60;99.90;;;;;;7389784;19;21039;-75
2023/03/04 03:06:38;;;;;;;18.80;11.23;;;5.70;99.90;;;;;;7392133;19;20133;-76
2023/03/04 03:09:04;;;;;;;19.37;10.70;;;5.70;99.90;;;;;;7391279;19;20505;-75
2023/03/04 03:11:30;;;;;;;22.33;11.60;;;5.80;99.90;;;;;;7388234;19;20150;-76
2023/03/04 03:13:56;;;;;;;17.70;9.77;;;5.70;99.90;;;;;;7388233;19;20138;-75
2023/03/04 03:16:22;;;;;;;18.13;10.47;;;5.80;99.90;;;;;;7390577;19;20290;-75
2023/03/04 03:18:48;;;;;;;20.97;11.03;;;5.80;99.90;;;;;;7389098;19;20163;-76
2023/03/04 03:21:13;;;;;;;18.83;11.10;;;5.70;99.90;;;;;;7386484;19;20153;-76
2023/03/04 03:23:39;;;;;;;20.07;11.03;;;5.70;99.90;;;;;;7389247;19;20137;-77
2023/03/04 03:26:05;;;;;;;17.13;10.10;;;5.70;99.90;;;;;;7385425;19;20135;-75
2023/03/04 03:28:31;;;;;;;20.63;11.60;;;5.70;99.90;;;;;;7375952;19;20164;-75
2023/03/04 03:30:57;;;;;;;18.00;9.83;;;5.60;99.90;;;;;;7389548;19;20145;-76
2023/03/04 03:33:23;;;;;;;21.23;11.00;;;5.60;99.90;;;;;;7388523;19;20138;-76
2023/03/04 03:35:49;;;;;;;18.70;10.20;;;5.70;99.90;;;;;;7389622;19;20553;-76
2023/03/04 03:38:16;;;;;;;19.07;10.37;;;5.60;99.90;;;;;;7388913;19;20126;-75
2023/03/04 03:40:42;;;;;;;17.80;10.80;;;5.70;99.90;;;;;;7390098;19;20143;-76
2023/03/04 03:43:08;;;;;;;18.57;10.97;;;5.70;99.90;;;;;;7376043;19;20177;-77
2023/03/04 03:45:33;;;;;;;20.80;11.20;;;5.70;99.90;;;;;;7385379;19;20162;-76
2023/03/04 03:47:59;;;;;;;17.47;10.20;;;5.60;99.90;;;;;;7387793;19;20155;-75
2023/03/04 03:50:25;;;;;;;16.87;10.07;;;5.50;99.90;;;;;;7388612;19;20146;-76
2023/03/04 03:52:50;;;;;;;19.33;10.40;;;5.50;99.90;;;;;;7386982;19;20138;-76
2023/03/04 03:55:16;;;;;;;18.30;11.30;;;5.70;99.90;;;;;;7389159;19;20619;-76
2023/03/04 03:57:42;;;;;;;22.47;11.77;;;5.70;99.90;;;;;;7389178;19;20130;-75
2023/03/04 04:00:10;;;;;;;22.30;12.03;;;5.50;99.90;;;;;;7386637;19;20472;-75
2023/03/04 04:02:36;;;;;;;23.47;12.13;;;5.40;99.90;;;;;;7386517;19;20210;-75
2023/03/04 04:05:01;;;;;;;21.03;11.73;;;5.30;99.90;;;;;;7386010;19;20185;-76
2023/03/04 04:07:27;;;;;;;20.67;12.33;;;5.40;99.90;;;;;;7387939;19;20146;-75
2023/03/04 04:09:53;;;;;;;24.87;12.53;;;5.40;99.90;;;;;;7388112;19;20155;-75
2023/03/04 04:12:19;;;;;;;22.43;11.70;;;5.40;99.90;;;;;;7387260;19;20496;-76
2023/03/04 04:14:45;;;;;;;20.90;11.60;;;5.40;99.90;;;;;;7388729;19;20131;-75
2023/03/04 04:17:13;;;;;;;19.60;11.37;;;5.40;99.90;;;;;;7386769;19;20789;-76
2023/03/04 04:19:39;;;;;;;24.80;12.30;;;5.40;99.90;;;;;;7387987;19;20505;-75
2023/03/04 04:22:07;;;;;;;23.37;12.37;;;5.40;99.90;;;;;;7388571;19;20146;-76
2023/03/04 04:24:33;;;;;;;20.00;11.63;;;5.30;99.90;;;;;;7390431;19;20138;-75
2023/03/04 04:27:00;;;;;;;21.33;11.50;;;5.30;99.90;;;;;;7390314;19;20143;-77
2023/03/04 04:29:26;;;;;;;20.57;11.67;;;5.30;99.90;;;;;;7385937;19;20158;-76
2023/03/04 04:31:51;;;;;;;20.37;11.30;;;5.30;99.90;;;;;;7387134;19;20147;-76
2023/03/04 04:34:17;;;;;;;21.57;11.77;;;5.20;99.90;;;;;;7383065;19;20661;-76
2023/03/04 04:36:43;;;;;;;19.83;12.13;;;5.10;99.90;;;;;;7384309;19;20134;-76
2023/03/04 04:39:09;;;;;;;20.70;11.70;;;4.90;99.90;;;;;;7386864;19;20131;-75
2023/03/04 04:41:40;;;;;;;21.87;11.93;;;5.00;99.90;;;;;;7386747;19;20229;-76
2023/03/04 04:44:07;;;;;;;19.27;11.37;;;5.00;99.90;;;;;;7386404;19;20138;-75
2023/03/04 04:46:33;;;;;;;18.70;10.70;;;5.10;99.90;;;;;;7388421;19;20131;-75
2023/03/04 04:48:59;;;;;;;21.67;11.80;;;5.00;99.90;;;;;;7386779;19;20141;-76
2023/03/04 04:51:25;;;;;;;19.93;10.90;;;4.90;99.90;;;;;;7386892;19;20131;-75
2023/03/04 04:53:51;;;;;;;18.87;10.87;;;4.90;99.90;;;;;;7385613;19;20214;-75
2023/03/04 04:56:20;;;;;;;20.93;10.90;;;5.00;99.90;;;;;;7385989;19;20151;-76
2023/03/04 04:58:47;;;;;;;18.50;10.50;;;4.90;99.90;;;;;;7386254;19;20153;-75
2023/03/04 05:01:13;;;;;;;22.57;12.17;;;5.00;99.90;;;;;;7387624;19;20131;-75
2023/03/04 05:03:39;;;;;;;23.63;11.70;;;5.00;99.90;;;;;;7385788;19;20185;-75
2023/03/04 05:06:07;;;;;;;22.37;11.50;;;5.00;99.90;;;;;;7386644;19;20138;-77
2023/03/04 05:08:33;;;;;;;17.73;10.43;;;4.90;99.90;;;;;;7388660;19;20142;-76
2023/03/04 05:11:00;;;;;;;21.97;10.90;;;5.00;99.90;;;;;;7386262;19;20165;-77
2023/03/04 05:13:26;;;;;;;20.90;11.07;;;5.00;99.90;;;;;;7387794;19;20138;-75
2023/03/04 05:15:54;;;;;;;18.70;10.67;;;5.00;99.90;;;;;;7386316;19;20205;-75
2023/03/04 05:18:21;;;;;;;18.83;10.30;;;4.90;99.90;;;;;;7385677;19;20154;-76
2023/03/04 05:20:52;;;;;;;19.47;10.67;;;4.70;99.90;;;;;;7385738;19;20127;-75
2023/03/04 05:23:18;;;;;;;18.90;10.87;;;4.80;99.90;;;;;;7384368;19;20158;-76
2023/03/04 05:25:44;;;;;;;19.90;11.33;;;4.80;99.90;;;;;;7386466;19;20134;-76
2023/03/04 05:28:11;;;;;;;21.67;11.47;;;4.80;99.90;;;;;;7385366;19;20556;-75
2023/03/04 05:30:38;;;;;;;21.63;11.63;;;4.80;99.90;;;;;;7386935;19;20150;-76
2023/03/04 05:33:04;;;;;;;19.87;10.73;;;4.80;99.90;;;;;;7386719;19;20599;-75
2023/03/04 05:35:30;;;;;;;18.33;11.30;;;4.90;99.90;;;;;;7387570;19;20151;-76
2023/03/04 05:37:56;;;;;;;17.30;10.67;;;4.90;99.90;;;;;;7386693;19;20658;-76
2023/03/04 05:40:24;;;;;;;19.10;11.43;;;4.90;99.90;;;;;;7382053;19;20134;-76
2023/03/04 05:42:50;;;;;;;18.93;10.13;;;4.90;99.90;;;;;;7381347;19;20158;-76
2023/03/04 05:45:17;;;;;;;21.63;12.00;;;4.90;99.90;;;;;;7389102;19;20432;-75
2023/03/04 05:47:42;;;;;;;20.93;11.47;;;4.80;99.90;;;;;;7391939;19;20162;-76
2023/03/04 05:50:09;;;;;;;19.70;10.90;;;4.80;99.90;;;;;;7392115;19;20135;-75
2023/03/04 05:52:34;;;;;;;22.37;11.57;;;4.80;99.90;;;;;;7391115;19;20150;-75
2023/03/04 05:55:00;;;;;;;17.73;11.43;;;4.80;99.90;;;;;;7391789;19;20173;-76
2023/03/04 05:57:26;;;;;;;23.57;11.93;;;4.40;99.90;;;;;;7392800;19;20158;-75
2023/03/04 05:59:52;;;;;;;19.27;10.80;;;4.50;99.90;;;;;;7391118;19;20163;-76
2023/03/04 06:02:17;;;;;;;19.03;10.17;;;4.50;99.90;;;;;;7394080;19;20139;-76
2023/03/04 06:04:43;;;;;;;23.43;11.13;;;4.60;99.90;;;;;;7388507;19;20561;-76
2023/03/04 06:07:09;;;;;;;20.60;10.67;;;4.60;99.90;;;;;;7390540;19;20501;-76
2023/03/04 06:09:35;;;;;;;21.33;11.77;;;4.70;99.90;;;;;;7393900;19;20230;-76
2023/03/04 06:12:00;;;;;;;20.07;10.90;;;4.70;99.90;;;;;;7393122;19;20142;-76
2023/03/04 06:14:26;;;;;;;18.80;10.90;;;4.70;99.90;;;;;;7394634;19;20142;-75
2023/03/04 06:16:52;;;;;;;23.23;11.83;;;4.70;99.90;;;;;;7392308;19;20824;-75
2023/03/04 06:19:18;;;;;;;27.60;12.60;;;4.60;99.90;;;;;;7392047;19;20594;-75
2023/03/04 06:21:43;;;;;;;24.63;12.43;;;4.50;99.90;;;;;;7390984;19;20150;-75
2023/03/04 06:24:09;;;;;;;23.57;12.20;;;4.40;99.90;;;;;;7393143;19;20149;-76
2023/03/04 06:26:35;;;;;;;20.20;11.73;;;4.40;99.90;;;;;;7392301;19;20153;-76
2023/03/04 06:29:01;;;;;;;24.67;12.53;;;4.40;99.90;;;;;;7391062;19;20159;-77
2023/03/04 06:31:26;;;;;;;20.97;12.03;;;4.10;99.90;;;;;;7391188;19;20625;-76
2023/03/04 06:33:52;;;;;;;24.30;11.97;;;4.30;99.90;;;;;;7391029;19;20920;-76
2023/03/04 06:36:18;;;;;;;24.00;12.40;;;4.40;99.90;;;;;;7390813;19;20154;-76
2023/03/04 06:38:44;;;;;;;23.47;12.63;;;4.40;99.90;;;;;;7390434;19;20167;-76
2023/03/04 06:41:11;;;;;;;22.40;12.13;;;4.40;99.90;;;;;;7391161;19;20165;-75
2023/03/04 06:43:38;;;;;;;19.93;11.43;;;4.40;99.90;;;;;;7392014;19;20134;-75
2023/03/04 06:46:08;;;;;;;23.93;11.77;;;4.40;99.90;;;;;;7390430;19;20138;-76
2023/03/04 06:48:34;;;;;;;22.23;11.33;;;4.40;99.90;;;;;;7392302;19;20643;-76
2023/03/04 06:51:08;;;;;;;21.10;11.53;;;4.30;99.90;;;;;;7391431;19;20143;-75
2023/03/04 06:53:34;;;;;;;25.43;11.90;;;4.50;99.90;;;;;;7390471;19;21097;-76
2023/03/04 06:56:00;;;;;;;21.80;11.83;;;4.60;99.90;;;;;;7389573;19;20210;-75
2023/03/04 06:58:26;;;;;;;25.33;12.13;;;4.40;99.90;;;;;;7391735;19;20131;-75
2023/03/04 07:00:52;;;;;;;23.67;11.70;;;4.40;99.90;;;;;;7390106;19;20146;-74
2023/03/04 07:03:18;;;;;;;24.80;13.03;;;4.40;99.90;;;;;;7390490;19;20182;-76
2023/03/04 07:05:43;;;;;;;23.53;11.90;;;4.30;99.90;;;;;;7389968;19;20139;-76
2023/03/04 07:08:09;;;;;;;23.13;11.33;;;4.50;99.90;;;;;;7390362;19;20147;-76
2023/03/04 07:10:35;;;;;;;21.93;11.80;;;4.60;99.90;;;;;;7390709;19;20150;-75
2023/03/04 07:13:01;;;;;;;24.43;12.83;;;4.70;99.90;;;;;;7389879;19;20145;-75
2023/03/04 07:15:28;;;;;;;26.00;13.80;;;4.70;99.90;;;;;;7389752;19;20150;-75
2023/03/04 07:17:54;;;;;;;23.77;12.10;;;4.60;99.90;;;;;;7391170;19;20156;-76
2023/03/04 07:20:20;;;;;;;21.37;11.70;;;4.60;99.90;;;;;;7388091;19;20223;-75
2023/03/04 07:22:46;;;;;;;19.27;10.60;;;4.70;99.90;;;;;;7389730;19;20131;-76
2023/03/04 07:25:12;;;;;;;21.73;11.70;;;4.60;99.90;;;;;;7388720;19;20131;-76
2023/03/04 07:27:39;;;;;;;20.93;11.40;;;4.60;99.90;;;;;;7390909;19;20595;-76
2023/03/04 07:30:06;;;;;;;21.03;12.10;;;4.50;99.90;;;;;;7390956;19;20249;-76
2023/03/04 07:32:34;;;;;;;21.80;12.27;;;4.50;99.90;;;;;;7386796;19;20151;-75
2023/03/04 07:35:00;;;;;;;23.53;11.30;;;4.40;99.90;;;;;;7390167;19;20159;-76
2023/03/04 07:37:26;;;;;;;20.80;11.30;;;4.50;99.90;;;;;;7388131;19;20134;-76
2023/03/04 07:39:53;;;;;;;19.97;11.07;;;4.50;99.90;;;;;;7386811;19;20142;-75
2023/03/04 07:42:18;;;;;;;20.33;11.57;;;4.50;99.90;;;;;;7388697;19;20543;-75
2023/03/04 07:44:44;;;;;;;20.50;10.53;;;4.60;99.90;;;;;;7388308;19;20131;-76
2023/03/04 07:47:10;;;;;;;21.63;11.47;;;4.60;99.90;;;;;;7388724;19;20137;-75
2023/03/04 07:49:36;;;;;;;22.13;11.13;;;4.70;99.90;;;;;;7389551;19;20138;-76
2023/03/04 07:52:04;;;;;;;18.50;10.87;;;4.80;99.90;;;;;;7390914;19;20162;-77
2023/03/04 07:54:32;;;;;;;19.87;10.37;;;4.80;99.90;;;;;;7386603;19;20127;-74
2023/03/04 07:56:57;;;;;;;23.20;11.50;;;4.70;99.90;;;;;;7387104;19;20134;-75
2023/03/04 07:59:23;;;;;;;22.60;11.50;;;4.60;99.90;;;;;;7385707;19;20174;-75
2023/03/04 08:01:50;;;;;;;20.40;11.57;;;4.50;99.90;;;;;;7387094;19;20138;-74
2023/03/04 08:04:16;;;;;;;20.27;10.17;;;4.40;99.90;;;;;;7386111;19;20722;-74
2023/03/04 08:06:42;;;;;;;19.87;11.13;;;4.40;99.90;;;;;;7387031;19;20150;-74
2023/03/04 08:09:12;;;;;;;20.17;10.83;;;4.40;99.90;;;;;;7387165;19;20150;-75
2023/03/04 08:11:38;;;;;;;22.13;11.77;;;4.40;99.90;;;;;;7385581;19;20157;-74
2023/03/04 08:14:05;;;;;;;20.57;11.27;;;4.40;99.90;;;;;;7383888;19;20166;-76
2023/03/04 08:16:30;;;;;;;18.90;11.20;;;4.40;99.90;;;;;;7387377;19;20130;-73
2023/03/04 08:18:58;;;;;;;18.57;10.87;;;4.30;99.90;;;;;;7386843;19;20146;-75
2023/03/04 08:21:26;;;;;;;21.67;10.63;;;4.50;99.90;;;;;;7386561;19;20142;-74
2023/03/04 08:23:51;;;;;;;18.97;10.70;;;4.60;99.90;;;;;;7384873;19;20594;-74
2023/03/04 08:26:20;;;;;;;21.07;10.70;;;4.80;99.90;;;;;;7386707;19;20147;-75
2023/03/04 08:28:47;;;;;;;18.47;10.53;;;4.80;99.90;;;;;;7386447;19;20154;-75
2023/03/04 08:31:14;;;;;;;19.97;10.00;;;4.60;99.90;;;;;;7381894;19;20459;-76
2023/03/04 08:33:39;;;;;;;18.57;9.97;;;4.60;99.90;;;;;;7384310;19;20595;-75
2023/03/04 08:36:06;;;;;;;16.70;9.73;;;4.60;99.90;;;;;;7386041;19;20168;-74
2023/03/04 08:38:32;;;;;;;21.80;10.27;;;4.60;99.90;;;;;;7383475;19;20146;-75
2023/03/04 08:40:57;;;;;;;20.90;9.90;;;4.50;99.90;;;;;;7385614;19;20154;-76
2023/03/04 08:43:25;;;;;;;19.27;10.70;;;4.60;99.90;;;;;;7383418;19;20142;-75
2023/03/04 08:45:52;;;;;;;20.17;10.93;;;4.70;99.90;;;;;;7388988;19;20143;-76
2023/03/04 08:48:18;;;;;;;17.63;10.93;;;4.90;99.90;;;;;;7388885;19;20143;-77
2023/03/04 08:50:46;;;;;;;22.30;11.43;;;5.00;99.90;;;;;;7386757;19;20158;-77
2023/03/04 08:53:13;;;;;;;24.70;12.57;;;5.00;99.90;;;;;;7388317;19;20159;-76
2023/03/04 08:55:41;;;;;;;24.53;11.17;;;4.90;99.90;;;;;;7389810;19;20176;-76
2023/03/04 08:58:07;;;;;;;23.47;11.30;;;4.90;99.90;;;;;;7388681;19;20614;-77
2023/03/04 09:00:35;;;;;;;17.83;10.57;;;4.90;99.90;;;;;;7384765;19;20142;-74
2023/03/04 09:03:01;;;;;;;20.17;11.13;;;4.80;99.90;;;;;;7387634;19;20497;-75
2023/03/04 09:05:26;;;;;;;17.77;10.87;;;4.80;99.90;;;;;;7387010;19;20142;-78
2023/03/04 09:07:53;;;;;;;23.83;11.53;;;4.70;99.90;;;;;;7385611;19;20150;-75
2023/03/04 09:10:19;;;;;;;19.73;10.60;;;4.70;99.90;;;;;;7385553;19;20510;-76
2023/03/04 09:12:45;;;;;;;20.20;10.73;;;4.70;99.90;;;;;;7387001;19;20169;-75
2023/03/04 09:15:12;;;;;;;22.93;12.33;;;4.70;99.90;;;;;;7384694;19;20159;-77
2023/03/04 09:17:39;;;;;;;24.00;12.13;;;4.70;99.90;;;;;;7387550;19;20154;-74
2023/03/04 09:20:08;;;;;;;19.23;11.33;;;4.80;99.90;;;;;;7386581;19;20513;-75
2023/03/04 09:22:35;;;;;;;26.20;12.67;;;4.80;99.90;;;;;;7394643;19;20189;-75
2023/03/04 09:25:01;;;;;;;22.13;11.43;;;4.80;99.90;;;;;;7394200;19;20838;-76
2023/03/04 09:27:27;;;;;;;19.10;10.13;;;4.80;99.90;;;;;;7395422;19;20153;-77
2023/03/04 09:29:53;;;;;;;22.40;11.80;;;4.80;99.90;;;;;;7393294;19;20147;-76
2023/03/04 09:32:18;;;;;;;19.07;11.10;;;4.80;99.90;;;;;;7396437;19;20509;-75
2023/03/04 09:34:44;;;;;;;21.10;11.33;;;5.00;99.90;;;;;;7393538;19;20145;-75
2023/03/04 09:37:10;;;;;;;20.27;10.97;;;5.20;99.90;;;;;;7392530;19;20506;-76
2023/03/04 09:39:36;;;;;;;17.80;9.97;;;5.30;99.90;;;;;;7393005;19;20149;-76
2023/03/04 09:42:03;;;;;;;22.60;11.37;;;5.40;99.90;;;;;;7393953;19;20163;-75
2023/03/04 09:44:47;;;;;;;23.37;11.20;;;5.40;99.90;;;;;;7392418;19;20160;-74
2023/03/04 09:47:20;;;;;;;17.90;9.80;;;5.30;99.90;;;;;;7394717;19;20642;-76
2023/03/04 09:50:11;;;;;;;18.73;9.87;;;5.40;99.90;;;;;;7392361;19;20628;-77
2023/03/04 09:52:57;;;;;;;21.03;10.07;;;5.40;99.90;;;;;;7391651;19;20158;-77
2023/03/04 09:55:32;;;;;;;18.20;10.47;;;5.30;99.90;;;;;;7394954;19;20206;-88
2023/03/04 09:58:20;;;;;;;22.83;10.67;;;5.20;99.90;;;;;;7391225;19;20467;-76
2023/03/04 10:00:54;;;;;;;18.17;9.83;;;5.20;99.90;;;;;;7391957;19;20137;-75
2023/03/04 10:03:26;;;;;;;18.13;10.57;;;5.30;99.90;;;;;;7394279;19;20615;-77
2023/03/04 10:06:08;;;;;;;20.90;11.07;;;5.60;99.90;;;;;;7392976;19;20154;-78
2023/03/04 10:09:08;;;;;;;19.13;10.13;;;5.90;99.90;;;;;;7391992;19;20818;-79
2023/03/04 10:11:40;;;;;;;19.30;10.23;;;5.80;99.90;;;;;;7394061;19;20150;-82
2023/03/04 10:14:21;;;;;;;19.23;9.97;;;6.00;99.90;;;;;;7391223;19;20607;-82
2023/03/04 10:17:08;;;;;;;19.93;9.80;;;6.00;99.90;;;;;;7399369;19;20902;-82
2023/03/04 10:19:55;;;;;;;22.17;11.50;;;5.80;99.90;;;;;;7384125;19;20134;-78
2023/03/04 10:22:43;;;;;;;21.03;11.80;;;5.90;99.90;;;;;;7384169;19;20492;-77
2023/03/04 10:25:31;;;;;;;18.53;11.37;;;5.90;99.90;;;;;;7385055;19;20155;-81
2023/03/04 10:28:05;;;;;;;22.50;12.07;;;5.80;99.90;;;;;;7388711;19;20167;-79
2023/03/04 10:30:54;;;;;;;21.87;12.03;;;5.70;99.90;;;;;;7387134;19;20254;-79
2023/03/04 10:33:23;;;;;;;20.93;12.33;;;5.70;99.90;;;;;;7394295;19;21072;-80
2023/03/04 10:36:04;;;;;;;22.77;12.57;;;5.80;99.90;;;;;;7399531;19;20146;-78
2023/03/04 10:38:40;;;;;;;20.40;11.80;;;5.80;99.90;;;;;;7387927;19;20152;-79
2023/03/04 10:41:14;;;;;;;22.27;12.57;;;5.80;99.90;;;;;;7392408;19;20594;-79
2023/03/04 10:43:42;;;;;;;20.63;11.53;;;5.90;99.90;;;;;;7396390;19;21276;-79
2023/03/04 10:46:11;;;;;;;23.90;13.20;;;5.90;99.90;;;;;;7388859;19;20154;-79
2023/03/04 10:48:45;;;;;;;22.13;13.57;;;6.10;99.90;;;;;;7394477;19;20127;-78
2023/03/04 10:51:27;;;;;;;22.80;13.47;;;6.30;99.90;;;;;;7391578;19;20142;-78
2023/03/04 10:54:15;;;;;;;21.73;13.23;;;6.30;99.90;;;;;;7390577;19;20131;-79
2023/03/04 10:56:45;;;;;;;20.87;13.13;;;6.30;99.90;;;;;;7389038;19;20602;-79
2023/03/04 10:59:35;;;;;;;21.70;13.30;;;6.20;99.90;;;;;;7387883;19;20173;-79
2023/03/04 11:02:23;;;;;;;23.63;13.33;;;6.10;99.90;;;;;;7391042;19;20174;-76
2023/03/04 11:05:22;;;;;;;25.40;14.30;;;6.10;99.90;;;;;;7381594;19;20182;-77
2023/03/04 11:07:50;;;;;;;27.53;14.60;;;6.20;99.90;;;;;;7398795;19;20654;-77
2023/03/04 11:10:17;;;;;;;28.07;15.13;;;6.30;99.90;;;;;;7388300;19;20143;-77
2023/03/04 11:13:00;;;;;;;26.00;14.37;;;6.30;99.90;;;;;;7373569;19;20178;-76
2023/03/04 11:15:30;;;;;;;25.13;15.17;;;6.40;99.90;;;;;;7387752;19;20174;-78
2023/03/04 11:18:11;;;;;;;26.53;15.83;;;6.40;99.90;;;;;;7389804;19;20634;-76
2023/03/04 11:20:41;;;;;;;29.70;15.70;;;6.40;99.90;;;;;;7390002;19;20205;-78
2023/03/04 11:23:25;;;;;;;27.73;16.93;;;6.30;99.90;;;;;;7386039;19;20163;-78
2023/03/04 11:26:03;;;;;;;24.97;14.67;;;6.10;99.90;;;;;;7311674;19;231068;-77
2023/03/04 11:28:43;;;;;;;31.40;17.13;;;6.10;99.90;;;;;;7389232;19;20153;-76
2023/03/04 11:31:14;;;;;;;27.93;15.90;;;6.10;99.90;;;;;;7390624;19;21813;-76
2023/03/04 11:33:50;;;;;;;28.37;16.23;;;6.00;99.90;;;;;;7389050;19;21660;-75
2023/03/04 11:36:53;;;;;;;28.83;16.53;;;6.10;99.90;;;;;;7380778;19;20127;-76
2023/03/04 11:39:45;;;;;;;31.07;16.83;;;6.10;99.90;;;;;;7388364;19;20222;-75
2023/03/04 11:42:39;;;;;;;30.03;16.07;;;6.20;99.90;;;;;;7389384;19;20496;-76
2023/03/04 11:46:04;;;;;;;30.70;17.03;;;6.30;99.90;;;;;;7390312;19;20585;-78
2023/03/04 11:48:43;;;;;;;29.27;16.20;;;6.50;99.90;;;;;;7389163;19;20159;-78
2023/03/04 11:51:31;;;;;;;27.83;17.90;;;6.40;99.90;;;;;;7388177;19;20146;-76
2023/03/04 11:54:25;;;;;;;33.30;18.70;;;6.30;99.90;;;;;;7389901;19;20135;-76
2023/03/04 11:56:57;;;;;;;32.87;18.17;;;6.30;99.90;;;;;;7389339;19;20142;-77
2023/03/04 11:59:42;;;;;;;29.60;17.70;;;6.40;99.90;;;;;;7389662;19;20896;-77
2023/03/04 12:02:15;;;;;;;31.80;17.63;;;6.40;99.90;;;;;;7388733;19;20150;-76
2023/03/04 12:05:02;;;;;;;32.17;17.23;;;6.50;99.90;;;;;;7385909;19;20178;-77
2023/03/04 12:07:49;;;;;;;35.03;19.10;;;6.40;99.90;;;;;;7388336;19;20170;-75
2023/03/04 12:10:32;;;;;;;32.80;18.10;;;6.20;99.90;;;;;;7389984;19;20130;-77
2023/03/04 12:13:19;;;;;;;33.80;18.03;;;6.30;99.90;;;;;;7389663;19;20122;-75
2023/03/04 12:15:45;;;;;;;32.67;17.87;;;6.30;99.90;;;;;;7389611;19;20598;-77
2023/03/04 12:18:43;;;;;;;32.83;18.93;;;6.30;99.90;;;;;;7388507;19;20150;-77
2023/03/04 12:21:15;;;;;;;30.80;18.33;;;6.20;99.90;;;;;;7386462;19;20182;-76
2023/03/04 12:24:04;;;;;;;28.00;16.53;;;6.30;99.90;;;;;;7388104;19;20147;-76
2023/03/04 12:26:39;;;;;;;32.00;18.10;;;6.40;99.90;;;;;;7389596;19;20917;-78
2023/03/04 12:29:18;;;;;;;30.27;17.87;;;6.60;99.90;;;;;;7389215;19;20173;-77
2023/03/04 12:32:11;;;;;;;31.07;17.53;;;6.40;99.90;;;;;;7389249;19;20126;-75
2023/03/04 12:35:11;;;;;;;32.17;18.30;;;6.30;99.90;;;;;;7386054;19;20142;-76
2023/03/04 12:37:50;;;;;;;32.40;17.93;;;6.10;99.90;;;;;;7385746;19;20544;-75
2023/03/04 12:40:37;;;;;;;32.93;17.30;;;6.30;99.90;;;;;;7386127;19;20141;-77
2023/03/04 12:43:28;;;;;;;31.03;17.33;;;6.40;99.90;;;;;;7386706;19;20214;-76
2023/03/04 12:46:32;;;;;;;31.37;17.80;;;6.50;99.90;;;;;;7389887;19;20182;-77
2023/03/04 12:49:23;;;;;;;33.13;18.20;;;6.50;99.90;;;;;;7388600;19;20163;-77
2023/03/04 12:52:10;;;;;;;30.40;18.87;;;6.50;99.90;;;;;;7389485;19;20157;-77
2023/03/04 12:54:40;;;;;;;40.40;20.53;;;6.30;99.90;;;;;;7385864;19;20620;-78